createdAt,value
2019-05-03T05:13:27.155Z,17.30
2019-05-03T05:15:55.655Z,17.80
2019-05-03T05:18:30.760Z,17.90
2019-05-03T05:23:35.331Z,17.90
2019-05-03T05:26:14.457Z,18.00
2019-05-03T05:28:45.770Z,18.00
2019-05-03T05:33:44.562Z,18.00
2019-05-03T05:36:11.066Z,18.00
2019-05-03T05:38:39.887Z,18.00
2019-05-03T05:41:08.362Z,18.10
2019-05-03T05:43:37.208Z,18.00
2019-05-03T05:46:06.144Z,18.10
2019-05-03T05:48:38.807Z,18.10
2019-05-03T05:51:07.320Z,18.10
2019-05-03T05:53:36.070Z,18.10
2019-05-03T05:56:11.857Z,18.10
2019-05-03T05:58:45.074Z,18.20
2019-05-03T06:01:17.342Z,18.10
2019-05-03T06:03:45.830Z,18.20
2019-05-03T06:06:18.137Z,18.20
2019-05-03T06:08:50.829Z,18.20
2019-05-03T06:11:25.843Z,18.20
2019-05-03T06:13:58.127Z,18.20
2019-05-03T06:21:49.892Z,18.30
2019-05-03T06:26:55.263Z,18.40
2019-05-03T06:29:24.805Z,18.40
2019-05-03T06:31:59.111Z,18.50
2019-05-03T06:34:27.582Z,18.50
2019-05-03T06:36:56.723Z,18.50
2019-05-03T06:39:25.376Z,18.60
2019-05-03T06:41:55.085Z,18.60
2019-05-03T06:44:24.825Z,18.60
2019-05-03T06:46:51.466Z,18.70
2019-05-03T06:49:20.281Z,18.70
2019-05-03T06:51:49.905Z,18.80
2019-05-03T06:54:20.499Z,18.80
2019-05-03T06:56:45.713Z,18.90
2019-05-03T06:59:18.794Z,18.90
2019-05-03T07:05:25.332Z,19.00
2019-05-03T07:07:59.334Z,19.10
2019-05-03T07:10:32.420Z,19.10
2019-05-03T07:13:02.177Z,19.10
2019-05-03T07:15:30.660Z,19.20
2019-05-03T07:17:59.503Z,19.20
2019-05-03T07:20:27.990Z,19.30
2019-05-03T07:22:56.802Z,19.30
2019-05-03T07:25:26.038Z,19.30
2019-05-03T07:30:24.787Z,19.40
2019-05-03T07:32:55.195Z,19.40
2019-05-03T07:35:25.183Z,19.40
2019-05-03T07:37:52.414Z,19.50
2019-05-03T07:42:49.607Z,19.50
2019-05-03T07:45:18.093Z,19.50
2019-05-03T07:47:46.580Z,19.50
2019-05-03T07:50:15.365Z,19.50
2019-05-03T07:52:45.102Z,19.50
2019-05-03T07:55:12.414Z,19.50
2019-05-03T07:57:46.777Z,19.50
2019-05-03T08:00:17.218Z,19.50
2019-05-03T08:02:45.825Z,19.50
2019-05-03T08:05:15.533Z,19.50
2019-05-03T08:07:44.483Z,19.50
2019-05-03T08:10:11.775Z,19.60
2019-05-03T08:12:40.256Z,19.60
2019-05-03T08:15:08.969Z,19.60
2019-05-03T08:17:37.469Z,19.60
2019-05-03T08:20:05.985Z,19.50
2019-05-03T08:22:34.793Z,19.50
2019-05-03T08:25:05.432Z,19.50
2019-05-03T08:30:00.718Z,19.60
2019-05-03T08:35:24.391Z,19.60
2019-05-03T08:42:51.261Z,19.50
2019-05-03T08:45:19.982Z,19.50
2019-05-03T08:47:48.825Z,19.50
2019-05-03T08:50:21.401Z,19.50
2019-05-03T08:52:46.057Z,19.50
2019-05-03T08:55:15.835Z,19.50
2019-05-03T08:57:44.820Z,19.50
2019-05-03T09:00:14.549Z,19.50
2019-05-03T09:02:44.585Z,19.50
2019-05-03T09:05:11.611Z,19.50
2019-05-03T09:07:40.514Z,19.50
2019-05-03T09:10:16.878Z,19.50
2019-05-03T09:12:47.513Z,19.50
2019-05-03T09:15:15.999Z,19.50
2019-05-03T09:17:44.743Z,19.50
2019-05-03T09:22:41.813Z,19.50
2019-05-03T09:27:39.466Z,19.60
2019-05-03T09:30:07.925Z,19.60
2019-05-03T09:32:36.505Z,19.60
2019-05-03T09:35:05.578Z,19.60
2019-05-03T09:40:04.367Z,19.60
2019-05-03T09:42:31.253Z,19.60
2019-05-03T09:45:00.043Z,19.70
2019-05-03T09:47:28.529Z,19.70
2019-05-03T09:49:57.018Z,19.70
2019-05-03T09:52:25.875Z,19.70
2019-05-03T09:54:54.805Z,19.70
2019-05-03T09:57:24.620Z,19.70
2019-05-03T10:04:48.063Z,19.70
2019-05-03T10:07:16.555Z,19.70
2019-05-03T10:09:45.433Z,19.70
2019-05-03T10:12:17.130Z,19.70
2019-05-03T10:17:25.778Z,19.70
2019-05-03T10:19:54.786Z,19.70
2019-05-03T10:22:25.217Z,19.70
2019-05-03T10:24:54.931Z,19.70
2019-05-03T10:27:22.009Z,19.70
2019-05-03T10:29:50.488Z,19.70
2019-05-03T10:32:25.361Z,19.70
2019-05-03T10:37:30.618Z,19.70
2019-05-03T10:40:00.193Z,19.70
2019-05-03T10:42:29.042Z,19.70
2019-05-03T10:44:57.538Z,19.70
2019-05-03T10:47:26.141Z,19.60
2019-05-03T10:49:55.111Z,19.60
2019-05-03T10:52:26.070Z,19.60
2019-05-03T10:54:55.858Z,19.60
2019-05-03T10:57:24.829Z,19.60
2019-05-03T10:59:52.673Z,19.60
2019-05-03T11:05:20.417Z,19.50
2019-05-03T11:07:49.282Z,19.50
2019-05-03T11:10:17.778Z,19.50
2019-05-03T11:12:46.261Z,19.50
2019-05-03T11:15:15.043Z,19.50
2019-05-03T11:17:45.482Z,19.50
2019-05-03T11:20:22.200Z,19.50
2019-05-03T11:22:41.503Z,19.40
2019-05-03T11:25:09.993Z,19.40
2019-05-03T11:27:44.699Z,19.40
2019-05-03T11:30:12.654Z,19.40
2019-05-03T11:32:46.089Z,19.40
2019-05-03T11:35:21.441Z,19.40
2019-05-03T11:37:54.983Z,19.40
2019-05-03T11:40:25.175Z,19.40
2019-05-03T11:42:52.238Z,19.40
2019-05-03T11:45:20.717Z,19.40
2019-05-03T11:47:49.234Z,19.40
2019-05-03T11:50:18.491Z,19.40
2019-05-03T11:52:47.163Z,19.40
2019-05-03T11:55:15.890Z,19.40
2019-05-03T11:57:45.043Z,19.40
2019-05-03T12:00:12.302Z,19.40
2019-05-03T12:02:51.227Z,19.40
2019-05-03T12:05:24.545Z,19.40
2019-05-03T12:07:54.620Z,19.40
2019-05-03T12:10:36.532Z,19.40
2019-05-03T12:12:55.375Z,19.40
2019-05-03T12:22:49.231Z,19.40
2019-05-03T12:25:17.954Z,19.40
2019-05-03T12:27:46.002Z,19.40
2019-05-03T12:30:15.332Z,19.50
2019-05-03T12:32:43.582Z,19.50
2019-05-03T12:35:12.068Z,19.50
2019-05-03T12:37:40.928Z,19.50
2019-05-03T12:40:10.877Z,19.60
2019-05-03T12:42:39.802Z,19.60
2019-05-03T12:45:08.713Z,19.60
2019-05-03T12:47:37.222Z,19.60
2019-05-03T12:50:06.389Z,19.70
2019-05-03T12:52:39.409Z,19.70
2019-05-03T12:57:32.119Z,19.80
2019-05-03T13:00:05.093Z,19.80
2019-05-03T13:02:37.854Z,19.80
2019-05-03T13:07:38.849Z,19.80
2019-05-03T13:10:07.369Z,19.80
2019-05-03T13:12:49.127Z,19.90
2019-05-03T13:17:35.998Z,19.80
2019-05-03T13:20:06.521Z,19.80
2019-05-03T13:25:04.595Z,19.80
2019-05-03T13:27:34.919Z,19.80
2019-05-03T13:30:01.934Z,19.80
2019-05-03T13:37:27.318Z,19.80
2019-05-03T13:39:55.804Z,19.80
2019-05-03T13:42:24.777Z,19.80
2019-05-03T13:44:55.184Z,19.80
2019-05-03T13:49:50.027Z,19.80
2019-05-03T13:52:18.522Z,19.80
2019-05-03T13:57:15.684Z,19.80
2019-05-03T13:59:44.823Z,19.80
2019-05-03T14:02:18.832Z,19.80
2019-05-03T14:04:51.761Z,19.80
2019-05-03T14:07:10.193Z,19.80
2019-05-03T14:09:39.041Z,19.70
2019-05-03T14:12:07.701Z,19.70
2019-05-03T14:14:41.942Z,19.70
2019-05-03T14:17:10.465Z,19.70
2019-05-03T14:19:39.387Z,19.70
2019-05-03T14:22:07.898Z,19.70
2019-05-03T14:24:36.434Z,19.70
2019-05-03T14:29:34.768Z,19.70
2019-05-03T14:32:01.966Z,19.70
2019-05-03T14:36:58.763Z,19.70
2019-05-03T14:39:27.607Z,19.60
2019-05-03T14:41:56.081Z,19.60
2019-05-03T14:44:25.209Z,19.60
2019-05-03T14:46:58.798Z,19.60
2019-05-03T14:49:22.322Z,19.60
2019-05-03T14:51:50.802Z,19.60
2019-05-03T14:54:19.646Z,19.50
2019-05-03T14:56:55.303Z,19.50
2019-05-03T14:59:29.392Z,19.50
2019-05-03T15:04:31.123Z,19.50
2019-05-03T15:06:59.605Z,19.50
2019-05-03T15:09:28.384Z,19.50
2019-05-03T15:11:56.935Z,19.50
2019-05-03T15:14:25.763Z,19.50
2019-05-03T15:16:55.772Z,19.50
2019-05-03T15:19:25.230Z,19.50
2019-05-03T15:21:51.747Z,19.50
2019-05-03T15:26:48.917Z,19.50
2019-05-03T15:29:17.645Z,19.50
2019-05-03T15:31:46.442Z,19.50
2019-05-03T15:34:15.349Z,19.50
2019-05-03T15:36:45.087Z,19.60
2019-05-03T15:39:15.240Z,19.60
2019-05-03T15:41:41.587Z,19.60
2019-05-03T15:44:14.663Z,19.60
2019-05-03T15:51:45.875Z,19.70
2019-05-03T15:54:15.331Z,19.70
2019-05-03T15:59:11.497Z,19.80
2019-05-03T16:01:39.995Z,19.80
2019-05-03T16:04:08.482Z,19.80
2019-05-03T16:06:37.301Z,19.90
2019-05-03T16:09:06.821Z,19.90
2019-05-03T16:11:35.582Z,19.90
2019-05-03T16:16:32.702Z,20.00
2019-05-03T16:19:01.191Z,20.00
2019-05-03T16:21:30.543Z,20.00
2019-05-03T16:23:59.805Z,20.00
2019-05-03T16:29:04.700Z,20.00
2019-05-03T16:31:34.316Z,20.00
2019-05-03T16:34:00.751Z,20.00
2019-05-03T16:36:29.216Z,20.00
2019-05-03T16:38:58.292Z,20.00
2019-05-03T16:41:26.785Z,20.00
2019-05-03T16:43:55.609Z,20.00
2019-05-03T16:46:25.979Z,20.00
2019-05-03T16:48:52.563Z,20.00
2019-05-03T16:51:21.443Z,20.00
2019-05-03T16:53:50.573Z,20.00
2019-05-03T16:56:19.064Z,19.90
2019-05-03T17:01:18.054Z,19.90
2019-05-03T17:03:47.042Z,19.90
2019-05-03T17:06:28.625Z,19.90
2019-05-03T17:10:07.431Z,19.90
2019-05-03T17:12:35.219Z,19.80
2019-05-03T17:15:05.106Z,19.80
2019-05-03T17:17:34.519Z,19.80
2019-05-03T17:20:02.338Z,19.70
2019-05-03T17:22:31.186Z,19.70
2019-05-03T17:24:59.670Z,19.70
2019-05-03T17:27:28.159Z,19.70
2019-05-03T17:29:56.666Z,19.70
2019-05-03T17:32:25.457Z,19.70
2019-05-03T17:34:54.842Z,19.70
2019-05-03T17:37:23.720Z,19.60
2019-05-03T17:41:59.298Z,19.70
2019-05-03T17:44:34.251Z,19.60
2019-05-03T17:47:00.916Z,19.60
2019-05-03T17:49:29.394Z,19.60
2019-05-03T17:53:05.231Z,19.60
2019-05-03T17:55:37.335Z,19.60
2019-05-03T17:58:12.425Z,19.60
2019-05-03T18:00:49.159Z,19.60
2019-05-03T18:05:50.666Z,19.60
2019-05-03T18:08:58.401Z,19.60
2019-05-03T18:11:30.571Z,19.60
2019-05-03T18:13:59.435Z,19.70
2019-05-03T18:16:27.910Z,19.70
2019-05-03T18:18:56.736Z,19.70
2019-05-03T18:26:22.095Z,19.70
2019-05-03T18:28:50.714Z,19.80
2019-05-03T18:31:19.374Z,19.80
2019-05-03T18:33:48.221Z,19.80
2019-05-03T18:36:16.731Z,19.80
2019-05-03T18:41:14.138Z,19.90
2019-05-03T18:44:18.169Z,19.90
2019-05-03T18:46:51.691Z,19.90
2019-05-03T18:51:49.065Z,19.90
2019-05-03T18:54:17.541Z,19.90
2019-05-03T18:59:14.692Z,20.00
2019-05-03T19:01:45.210Z,20.00
2019-05-03T19:06:47.174Z,20.00
2019-05-03T19:09:24.931Z,20.00
2019-05-03T19:12:02.180Z,20.10
2019-05-03T19:14:30.666Z,20.10
2019-05-03T19:17:05.121Z,20.10
2019-05-03T19:19:35.297Z,20.10
2019-05-03T19:24:32.259Z,20.10
2019-05-03T19:27:00.739Z,20.10
2019-05-03T19:29:29.277Z,20.20
2019-05-03T19:31:57.836Z,20.20
2019-05-03T19:36:54.921Z,20.20
2019-05-03T19:39:25.180Z,20.30
2019-05-03T19:41:51.882Z,20.30
2019-05-03T19:44:20.620Z,20.30
2019-05-03T19:49:18.301Z,20.40
2019-05-03T19:56:46.720Z,20.40
2019-05-03T19:59:17.893Z,20.40
2019-05-03T20:01:51.509Z,20.40
2019-05-03T20:04:36.206Z,20.40
2019-05-03T20:07:11.991Z,20.40
2019-05-03T20:09:41.083Z,20.50
2019-05-03T20:12:10.204Z,20.50
2019-05-03T20:14:38.718Z,20.50
2019-05-03T20:17:07.819Z,20.50
2019-05-03T20:19:36.369Z,20.50
2019-05-03T20:22:05.276Z,20.50
2019-05-03T20:24:33.989Z,20.50
2019-05-03T20:29:31.346Z,20.50
2019-05-03T20:31:59.859Z,20.60
2019-05-03T20:34:28.690Z,20.50
2019-05-03T20:36:57.806Z,20.50
2019-05-03T20:39:26.938Z,20.50
2019-05-03T20:41:56.067Z,20.60
2019-05-03T20:44:38.345Z,20.50
2019-05-03T20:47:11.358Z,20.60
2019-05-03T20:49:40.193Z,20.60
2019-05-03T20:52:08.683Z,20.60
